createdAt,value
2023-04-23T00:00:08.472Z,23.82
2023-04-23T00:01:08.593Z,23.81
2023-04-23T00:02:08.585Z,23.81
2023-04-23T00:03:08.651Z,23.83
2023-04-23T00:04:08.762Z,23.85
2023-04-23T00:05:08.732Z,23.83
2023-04-23T00:06:08.846Z,23.86
2023-04-23T00:07:08.804Z,23.88
2023-04-23T00:08:08.973Z,23.85
2023-04-23T00:09:08.879Z,23.85
2023-04-23T00:10:08.927Z,23.85
2023-04-23T00:11:08.973Z,23.90
2023-04-23T00:12:09.033Z,23.87
2023-04-23T00:13:09.061Z,23.90
2023-04-23T00:14:09.115Z,23.95
2023-04-23T00:15:09.150Z,23.93
2023-04-23T00:16:09.236Z,23.96
2023-04-23T00:17:09.272Z,23.97
2023-04-23T00:18:09.311Z,23.94
2023-04-23T00:19:09.345Z,23.95
2023-04-23T00:20:09.403Z,23.97
2023-04-23T00:21:09.453Z,23.96
2023-04-23T00:22:09.479Z,23.96
2023-04-23T00:23:09.513Z,23.95
2023-04-23T00:24:09.584Z,23.97
2023-04-23T00:25:09.626Z,23.97
2023-04-23T00:26:10.027Z,24.01
2023-04-23T00:27:09.726Z,23.95
2023-04-23T00:28:09.765Z,24.00
2023-04-23T00:29:09.831Z,23.97
2023-04-23T00:30:09.875Z,23.97
2023-04-23T00:31:09.919Z,23.99
2023-04-23T00:32:10.204Z,24.00
2023-04-23T00:33:10.032Z,24.01
2023-04-23T00:34:10.081Z,24.02
2023-04-23T00:35:10.161Z,23.98
2023-04-23T00:36:10.215Z,23.97
2023-04-23T00:37:10.260Z,24.00
2023-04-23T00:38:10.298Z,24.00
2023-04-23T00:39:10.316Z,23.99
2023-04-23T00:40:10.372Z,24.01
2023-04-23T00:41:10.445Z,24.01
2023-04-23T00:42:10.563Z,24.04
2023-04-23T00:43:10.551Z,24.04
2023-04-23T00:44:10.585Z,24.03
2023-04-23T00:45:10.636Z,24.00
2023-04-23T00:46:10.736Z,24.02
2023-04-23T00:47:10.752Z,24.07
2023-04-23T00:48:10.820Z,24.07
2023-04-23T00:49:10.871Z,24.08
2023-04-23T00:50:10.918Z,24.02
2023-04-23T00:51:10.987Z,24.12
2023-04-23T00:52:11.046Z,24.11
2023-04-23T00:53:11.119Z,24.08
2023-04-23T00:54:11.157Z,24.09
2023-04-23T00:55:11.214Z,24.12
2023-04-23T00:56:11.250Z,24.11
2023-04-23T00:57:11.314Z,24.18
2023-04-23T00:58:11.387Z,24.19
2023-04-23T00:59:11.396Z,24.15
2023-04-23T01:00:11.482Z,24.16
2023-04-23T01:01:11.520Z,24.14
2023-04-23T01:02:11.640Z,24.15
2023-04-23T01:03:11.718Z,24.15
2023-04-23T01:04:11.734Z,24.16
2023-04-23T01:05:11.729Z,24.19
2023-04-23T01:06:11.802Z,24.19
2023-04-23T01:07:11.829Z,24.20
2023-04-23T01:08:11.884Z,24.20
2023-04-23T01:09:11.961Z,24.16
2023-04-23T01:10:11.991Z,24.17
2023-04-23T01:11:12.032Z,24.19
2023-04-23T01:12:12.090Z,24.22
2023-04-23T01:13:12.168Z,24.21
2023-04-23T01:14:12.224Z,24.22
2023-04-23T01:15:12.267Z,24.24
2023-04-23T01:16:12.339Z,24.21
2023-04-23T01:17:12.369Z,24.21
2023-04-23T01:18:12.451Z,24.24
2023-04-23T01:19:12.504Z,24.23
2023-04-23T01:20:12.707Z,24.24
2023-04-23T01:21:12.636Z,24.23
2023-04-23T01:22:12.701Z,24.21
2023-04-23T01:23:12.749Z,24.23
2023-04-23T01:24:12.791Z,24.23
2023-04-23T01:25:12.857Z,24.24
2023-04-23T01:26:12.923Z,24.25
2023-04-23T01:27:12.965Z,24.24
2023-04-23T01:28:13.027Z,24.25
2023-04-23T01:29:13.061Z,24.25
2023-04-23T01:30:13.134Z,24.25
2023-04-23T01:31:13.233Z,24.26
2023-04-23T01:32:13.246Z,24.25
2023-04-23T01:33:13.338Z,24.25
2023-04-23T01:34:13.401Z,24.27
2023-04-23T01:35:13.439Z,24.27
2023-04-23T01:36:13.497Z,24.27
2023-04-23T01:37:13.548Z,24.32
2023-04-23T01:38:14.081Z,24.29
2023-04-23T01:39:13.641Z,24.30
2023-04-23T01:40:13.721Z,24.34
2023-04-23T01:41:13.769Z,24.34
2023-04-23T01:42:13.771Z,24.31
2023-04-23T01:43:13.832Z,24.30
2023-04-23T01:44:13.953Z,24.35
2023-04-23T01:45:14.024Z,24.32
2023-04-23T01:46:14.071Z,24.37
2023-04-23T01:47:14.112Z,24.38
2023-04-23T01:48:14.193Z,24.37
2023-04-23T01:49:14.247Z,24.40
2023-04-23T01:50:14.305Z,24.41
2023-04-23T01:51:14.370Z,24.41
2023-04-23T01:52:14.521Z,24.48
2023-04-23T01:53:14.529Z,24.49
2023-04-23T01:54:14.545Z,24.55
2023-04-23T01:55:14.583Z,24.50
2023-04-23T01:56:14.622Z,24.50
2023-04-23T01:57:14.688Z,24.54
2023-04-23T01:58:14.716Z,24.49
2023-04-23T01:59:14.767Z,24.48
2023-04-23T02:00:14.851Z,24.48
2023-04-23T02:01:14.921Z,24.47
2023-04-23T02:02:15.010Z,24.50
2023-04-23T02:03:15.118Z,24.50
2023-04-23T02:04:15.195Z,24.53
2023-04-23T02:05:15.127Z,24.55
2023-04-23T02:06:15.207Z,24.51
2023-04-23T02:07:15.266Z,24.54
2023-04-23T02:08:15.306Z,24.55
2023-04-23T02:09:15.337Z,24.55
2023-04-23T02:10:15.376Z,24.54
2023-04-23T02:11:15.422Z,24.60
2023-04-23T02:12:15.482Z,24.59
2023-04-23T02:13:15.566Z,24.56
2023-04-23T02:14:15.618Z,24.57
2023-04-23T02:15:15.666Z,24.59
2023-04-23T02:16:15.754Z,24.57
2023-04-23T02:17:15.762Z,24.59
2023-04-23T02:18:15.790Z,24.59
2023-04-23T02:19:16.049Z,24.63
2023-04-23T02:20:15.893Z,24.62
2023-04-23T02:21:15.902Z,24.61
2023-04-23T02:22:15.975Z,24.64
2023-04-23T02:23:16.033Z,24.63
2023-04-23T02:24:16.077Z,24.62
2023-04-23T02:25:16.099Z,24.64
2023-04-23T02:26:16.163Z,24.67
2023-04-23T02:27:16.189Z,24.71
2023-04-23T02:28:16.250Z,24.69
2023-04-23T02:29:16.281Z,24.68
2023-04-23T02:30:16.297Z,24.69
2023-04-23T02:31:16.447Z,24.70
2023-04-23T02:32:16.351Z,24.71
2023-04-23T02:33:16.382Z,24.78
2023-04-23T02:34:16.430Z,24.72
2023-04-23T02:35:16.509Z,24.73
2023-04-23T02:36:16.495Z,24.74
2023-04-23T02:37:16.570Z,24.74
2023-04-23T02:38:16.601Z,24.81
2023-04-23T02:39:16.728Z,24.76
2023-04-23T02:40:16.898Z,24.75
2023-04-23T02:41:17.024Z,24.83
2023-04-23T02:42:17.165Z,24.82
2023-04-23T02:43:17.341Z,24.83
2023-04-23T02:44:17.608Z,24.81
2023-04-23T02:45:17.703Z,24.82
2023-04-23T02:46:18.003Z,24.83
2023-04-23T02:47:18.148Z,24.84
2023-04-23T02:48:18.226Z,24.87
2023-04-23T02:49:18.254Z,24.83
2023-04-23T02:50:18.319Z,24.88
2023-04-23T02:51:18.317Z,24.87
2023-04-23T02:52:18.299Z,24.88
2023-04-23T02:53:18.308Z,24.86
2023-04-23T02:54:18.298Z,24.86
2023-04-23T02:55:18.321Z,24.91
2023-04-23T02:56:18.288Z,24.89
2023-04-23T02:57:18.272Z,24.90
2023-04-23T02:58:18.266Z,24.89
2023-04-23T02:59:18.248Z,24.92
2023-04-23T03:00:18.255Z,24.92
2023-04-23T03:01:18.413Z,24.90
2023-04-23T03:02:18.274Z,24.93
2023-04-23T03:03:18.322Z,24.90
2023-04-23T03:04:18.290Z,24.95
2023-04-23T03:05:18.198Z,24.95
2023-04-23T03:06:18.215Z,24.96
2023-04-23T03:07:18.197Z,24.96
2023-04-23T03:08:18.183Z,24.95
2023-04-23T03:09:18.173Z,24.92
2023-04-23T03:10:18.190Z,24.93
2023-04-23T03:11:18.162Z,24.93
2023-04-23T03:12:18.160Z,24.92
2023-04-23T03:13:18.148Z,24.92
2023-04-23T03:14:18.205Z,24.89
2023-04-23T03:15:18.169Z,24.90
2023-04-23T03:16:18.211Z,24.90
2023-04-23T03:17:18.260Z,24.87
2023-04-23T03:18:18.109Z,24.86
2023-04-23T03:19:18.105Z,24.87
2023-04-23T03:20:18.114Z,24.89
2023-04-23T03:21:18.099Z,24.88
2023-04-23T03:22:18.079Z,24.85
2023-04-23T03:23:18.072Z,24.83
2023-04-23T03:24:18.065Z,24.85
2023-04-23T03:25:18.070Z,24.83
2023-04-23T03:26:18.076Z,24.87
2023-04-23T03:27:18.091Z,24.85
2023-04-23T03:28:18.170Z,24.85
2023-04-23T03:29:18.033Z,24.88
2023-04-23T03:30:18.029Z,24.92
2023-04-23T03:31:18.086Z,24.88
2023-04-23T03:32:18.068Z,24.95
2023-04-23T03:33:18.024Z,24.90
2023-04-23T03:34:17.996Z,24.92
2023-04-23T03:35:18.010Z,24.95
2023-04-23T03:36:17.971Z,25.00
2023-04-23T03:37:17.973Z,24.89
2023-04-23T03:38:17.968Z,24.97
2023-04-23T03:39:17.966Z,24.99
2023-04-23T03:40:17.953Z,25.04
2023-04-23T03:41:17.978Z,25.07
2023-04-23T03:42:17.950Z,25.10
2023-04-23T03:43:17.936Z,25.11
2023-04-23T03:44:17.936Z,25.14
2023-04-23T03:45:17.906Z,25.15
2023-04-23T03:46:17.969Z,25.13
2023-04-23T03:47:17.914Z,25.13
2023-04-23T03:48:17.926Z,25.06
2023-04-23T03:49:17.924Z,25.07
2023-04-23T03:50:17.965Z,25.06
2023-04-23T03:51:17.999Z,25.09
2023-04-23T03:52:18.015Z,25.16
2023-04-23T03:53:18.081Z,25.23
2023-04-23T03:54:18.128Z,25.23
2023-04-23T03:55:18.161Z,25.21
2023-04-23T03:56:18.204Z,25.19
2023-04-23T03:57:18.253Z,25.20
2023-04-23T03:58:18.271Z,25.21
2023-04-23T03:59:18.310Z,25.25
2023-04-23T04:00:18.314Z,25.25
2023-04-23T04:01:18.358Z,25.22
2023-04-23T04:02:18.484Z,25.32
2023-04-23T04:03:18.581Z,25.25
2023-04-23T04:04:18.823Z,25.28
2023-04-23T04:05:18.721Z,25.34
2023-04-23T04:06:18.488Z,25.28
2023-04-23T04:07:18.533Z,25.33
2023-04-23T04:08:18.559Z,25.19
2023-04-23T04:09:18.583Z,25.28
2023-04-23T04:10:18.656Z,25.30
2023-04-23T04:11:18.652Z,25.33
2023-04-23T04:12:18.796Z,25.29
2023-04-23T04:13:18.794Z,25.35
2023-04-23T04:14:18.833Z,25.31
2023-04-23T04:15:18.870Z,25.32
2023-04-23T04:16:18.931Z,25.37
2023-04-23T04:17:18.984Z,25.23
2023-04-23T04:18:18.988Z,25.30
2023-04-23T04:19:19.044Z,25.42
2023-04-23T04:20:19.102Z,25.36
2023-04-23T04:21:19.119Z,25.40
2023-04-23T04:22:19.167Z,25.47
2023-04-23T04:23:19.200Z,25.55
2023-04-23T04:24:19.292Z,25.49
2023-04-23T04:25:19.307Z,25.46
2023-04-23T04:26:19.345Z,25.52
2023-04-23T04:27:19.398Z,25.57
2023-04-23T04:28:19.441Z,25.59
2023-04-23T04:29:19.492Z,25.48
2023-04-23T04:30:19.512Z,25.51
2023-04-23T04:31:19.580Z,25.52
2023-04-23T04:32:19.682Z,25.56
2023-04-23T04:33:19.656Z,25.54
2023-04-23T04:34:19.696Z,25.61
2023-04-23T04:35:19.761Z,25.56
2023-04-23T04:36:19.818Z,25.60
2023-04-23T04:37:19.890Z,25.57
2023-04-23T04:38:20.019Z,25.63
2023-04-23T04:39:19.994Z,25.63
2023-04-23T04:40:20.044Z,25.61
2023-04-23T04:41:20.108Z,25.69
2023-04-23T04:42:20.146Z,25.61
2023-04-23T04:43:20.201Z,25.63
2023-04-23T04:44:20.266Z,25.71
2023-04-23T04:45:20.322Z,25.68
2023-04-23T04:46:20.402Z,25.59
2023-04-23T04:47:20.490Z,25.75
2023-04-23T04:48:20.500Z,25.68
2023-04-23T04:49:20.557Z,25.64
2023-04-23T04:50:20.567Z,25.56
2023-04-23T04:51:20.643Z,25.58
2023-04-23T04:52:20.687Z,25.58
2023-04-23T04:53:20.759Z,25.58
2023-04-23T04:54:20.802Z,25.65
2023-04-23T04:55:20.864Z,25.62
2023-04-23T04:56:20.920Z,25.63
2023-04-23T04:57:21.006Z,25.56
2023-04-23T04:58:21.086Z,25.59
2023-04-23T04:59:21.163Z,25.56
2023-04-23T05:00:21.191Z,25.59
2023-04-23T05:01:21.321Z,25.63
2023-04-23T05:02:21.599Z,25.63
2023-04-23T05:03:21.584Z,25.61
2023-04-23T05:04:21.482Z,25.67
2023-04-23T05:05:21.483Z,25.67
2023-04-23T05:06:21.543Z,25.65
2023-04-23T05:07:21.599Z,25.64
2023-04-23T05:08:21.664Z,25.72
2023-04-23T05:09:21.736Z,25.78
2023-04-23T05:10:21.802Z,25.72
2023-04-23T05:11:21.829Z,25.84
2023-04-23T05:12:21.868Z,25.74
2023-04-23T05:13:21.908Z,25.76
2023-04-23T05:14:22.023Z,25.70
2023-04-23T05:15:22.010Z,25.77
2023-04-23T05:16:22.105Z,25.73
2023-04-23T05:17:22.204Z,25.81
2023-04-23T05:18:22.189Z,25.78
2023-04-23T05:19:22.262Z,25.76
2023-04-23T05:20:22.307Z,25.75
2023-04-23T05:21:22.377Z,25.71
2023-04-23T05:22:22.416Z,25.76
2023-04-23T05:23:22.499Z,25.67
2023-04-23T05:24:22.542Z,25.67
2023-04-23T05:25:22.621Z,25.71
2023-04-23T05:26:22.667Z,25.76
2023-04-23T05:27:22.716Z,25.75
2023-04-23T05:28:22.777Z,25.71
2023-04-23T05:29:22.819Z,25.79
2023-04-23T05:30:22.870Z,25.67
2023-04-23T05:31:22.977Z,25.71
2023-04-23T05:32:22.990Z,25.68
2023-04-23T05:33:23.043Z,25.74
2023-04-23T05:34:23.099Z,25.73
2023-04-23T05:35:23.145Z,25.75
2023-04-23T05:36:23.222Z,25.74
2023-04-23T05:37:23.286Z,25.67
2023-04-23T05:38:23.336Z,25.66
2023-04-23T05:39:23.384Z,25.80
2023-04-23T05:40:23.451Z,25.70
2023-04-23T05:41:23.497Z,25.78
2023-04-23T05:42:23.547Z,25.69
2023-04-23T05:43:23.594Z,25.79
2023-04-23T05:44:23.773Z,25.90
2023-04-23T05:45:23.685Z,25.89
2023-04-23T05:46:23.780Z,25.93
2023-04-23T05:47:23.806Z,26.03
2023-04-23T05:48:23.842Z,25.81
2023-04-23T05:49:23.891Z,25.87
2023-04-23T05:50:23.942Z,25.80
2023-04-23T05:51:24.003Z,25.80
2023-04-23T05:52:24.029Z,25.81
2023-04-23T05:53:24.107Z,25.85
2023-04-23T05:54:24.145Z,25.84
2023-04-23T05:55:24.263Z,25.98
2023-04-23T05:56:24.267Z,25.84
2023-04-23T05:57:24.293Z,25.86
2023-04-23T05:58:24.370Z,25.84
2023-04-23T05:59:24.415Z,25.85
2023-04-23T06:00:24.486Z,25.86
2023-04-23T06:01:24.503Z,25.87
2023-04-23T06:02:24.996Z,25.86
2023-04-23T06:03:24.804Z,25.81
2023-04-23T06:04:24.825Z,25.84
2023-04-23T06:05:24.849Z,25.85
2023-04-23T06:06:24.763Z,25.84
2023-04-23T06:07:24.787Z,25.86
2023-04-23T06:08:25.322Z,25.88
2023-04-23T06:09:24.905Z,25.88
2023-04-23T06:10:24.930Z,25.87
2023-04-23T06:11:24.970Z,25.85
2023-04-23T06:12:25.019Z,25.90
2023-04-23T06:13:25.109Z,25.93
2023-04-23T06:14:25.129Z,25.92
2023-04-23T06:15:25.202Z,25.95
2023-04-23T06:16:25.318Z,25.93
2023-04-23T06:17:25.284Z,25.90
2023-04-23T06:18:25.335Z,25.95
2023-04-23T06:19:25.363Z,25.91
2023-04-23T06:20:25.434Z,25.93
2023-04-23T06:21:25.480Z,25.95
2023-04-23T06:22:25.522Z,26.02
2023-04-23T06:23:25.561Z,25.99
2023-04-23T06:24:25.603Z,25.98
2023-04-23T06:25:25.660Z,25.97
2023-04-23T06:26:25.699Z,25.96
2023-04-23T06:27:25.750Z,25.99
2023-04-23T06:28:25.825Z,25.97
2023-04-23T06:29:25.885Z,25.98
2023-04-23T06:30:25.919Z,26.01
2023-04-23T06:31:25.995Z,25.98
2023-04-23T06:32:25.991Z,26.09
2023-04-23T06:33:26.050Z,26.02
2023-04-23T06:34:26.118Z,26.06
2023-04-23T06:35:26.156Z,26.08
2023-04-23T06:36:26.199Z,26.05
2023-04-23T06:37:27.553Z,26.03
2023-04-23T06:38:26.248Z,26.10
2023-04-23T06:39:26.223Z,26.04
2023-04-23T06:40:26.214Z,26.01
2023-04-23T06:41:26.215Z,26.04
2023-04-23T06:42:26.204Z,26.06
2023-04-23T06:43:26.186Z,26.07
2023-04-23T06:44:26.193Z,26.03
2023-04-23T06:45:26.204Z,26.03
2023-04-23T06:46:26.170Z,26.08
2023-04-23T06:47:26.196Z,26.04
2023-04-23T06:48:26.150Z,26.06
2023-04-23T06:49:26.143Z,26.03
2023-04-23T06:50:26.315Z,26.09
2023-04-23T06:51:26.134Z,26.08
2023-04-23T06:52:26.159Z,26.05
2023-04-23T06:53:26.149Z,26.03
2023-04-23T06:54:26.139Z,26.05
2023-04-23T06:55:26.110Z,26.01
2023-04-23T06:56:26.206Z,26.07
2023-04-23T06:57:26.075Z,26.09
2023-04-23T06:58:26.100Z,26.03
2023-04-23T06:59:26.062Z,25.99
2023-04-23T07:00:26.064Z,26.10
2023-04-23T07:01:26.238Z,26.08
2023-04-23T07:02:26.074Z,26.08
2023-04-23T07:03:26.092Z,26.07
2023-04-23T07:04:26.059Z,26.06
2023-04-23T07:05:26.035Z,26.14
2023-04-23T07:06:26.029Z,26.04
2023-04-23T07:07:26.095Z,26.10
2023-04-23T07:08:26.020Z,26.11
2023-04-23T07:09:26.027Z,26.07
2023-04-23T07:10:26.052Z,26.10
2023-04-23T07:11:26.152Z,26.07
2023-04-23T07:12:26.021Z,26.05
2023-04-23T07:13:26.013Z,26.01
2023-04-23T07:14:25.985Z,26.02
2023-04-23T07:15:26.061Z,26.00
2023-04-23T07:16:25.994Z,25.96
2023-04-23T07:17:26.000Z,25.97
2023-04-23T07:18:25.990Z,25.98
2023-04-23T07:19:25.957Z,25.94
2023-04-23T07:20:25.998Z,25.93
2023-04-23T07:21:25.958Z,25.90
2023-04-23T07:22:25.937Z,25.85
2023-04-23T07:23:25.948Z,25.80
2023-04-23T07:24:25.920Z,25.84
2023-04-23T07:25:25.931Z,25.84
2023-04-23T07:26:25.907Z,25.82
2023-04-23T07:27:25.904Z,25.81
2023-04-23T07:28:25.904Z,25.83
2023-04-23T07:29:25.893Z,25.79
2023-04-23T07:30:25.899Z,25.79
2023-04-23T07:31:25.913Z,25.77
2023-04-23T07:32:25.932Z,25.82
2023-04-23T07:33:25.868Z,25.79
2023-04-23T07:34:25.918Z,25.75
2023-04-23T07:35:25.870Z,25.73
2023-04-23T07:36:25.875Z,25.75
2023-04-23T07:37:25.866Z,25.75
2023-04-23T07:38:25.858Z,25.72
2023-04-23T07:39:25.867Z,25.72
2023-04-23T07:40:25.830Z,25.70
2023-04-23T07:41:25.823Z,25.61
2023-04-23T07:42:25.874Z,25.58
2023-04-23T07:43:25.966Z,25.56
2023-04-23T07:44:25.963Z,25.51
2023-04-23T07:45:26.036Z,25.51
2023-04-23T07:46:26.123Z,25.46
2023-04-23T07:47:26.215Z,25.43
2023-04-23T07:48:26.200Z,25.41
2023-04-23T07:49:26.239Z,25.37
2023-04-23T07:50:26.299Z,25.34
2023-04-23T07:51:26.320Z,25.32
2023-04-23T07:52:26.361Z,25.29
2023-04-23T07:53:26.410Z,25.29
2023-04-23T07:54:26.482Z,25.24
2023-04-23T07:55:26.514Z,25.22
2023-04-23T07:56:26.543Z,25.20
2023-04-23T07:57:26.585Z,25.16
2023-04-23T07:58:26.655Z,25.13
2023-04-23T07:59:26.656Z,25.10
2023-04-23T08:00:26.692Z,25.09
2023-04-23T08:01:26.703Z,25.09
2023-04-23T08:02:26.822Z,25.04
2023-04-23T08:03:26.926Z,25.01
2023-04-23T08:04:26.914Z,24.98
2023-04-23T08:05:26.831Z,24.97
2023-04-23T08:06:26.777Z,24.95
2023-04-23T08:07:26.780Z,24.96
2023-04-23T08:08:26.812Z,24.95
2023-04-23T08:09:26.821Z,24.91
2023-04-23T08:10:26.814Z,24.90
2023-04-23T08:11:26.838Z,24.90
2023-04-23T08:12:26.817Z,24.91
2023-04-23T08:13:26.847Z,24.91
2023-04-23T08:14:26.860Z,24.88
2023-04-23T08:15:26.895Z,24.86
2023-04-23T08:16:26.978Z,24.84
2023-04-23T08:17:26.907Z,24.84
2023-04-23T08:18:26.944Z,24.82
2023-04-23T08:19:26.945Z,24.81
2023-04-23T08:20:27.006Z,24.81
2023-04-23T08:21:27.053Z,24.80
2023-04-23T08:22:27.107Z,24.77
2023-04-23T08:23:27.176Z,24.74
2023-04-23T08:24:27.268Z,24.72
2023-04-23T08:25:27.269Z,24.71
2023-04-23T08:26:27.322Z,24.70
2023-04-23T08:27:27.389Z,24.70
2023-04-23T08:28:27.416Z,24.67
2023-04-23T08:29:27.465Z,24.68
2023-04-23T08:30:27.500Z,24.69
2023-04-23T08:31:27.721Z,24.68
2023-04-23T08:32:27.597Z,24.66
2023-04-23T08:33:27.637Z,24.65
2023-04-23T08:34:27.682Z,24.65
2023-04-23T08:35:27.748Z,24.62
2023-04-23T08:36:27.801Z,24.60
2023-04-23T08:37:31.334Z,24.58
2023-04-23T08:38:27.851Z,24.59
2023-04-23T08:39:27.829Z,24.58
2023-04-23T08:40:27.816Z,24.58
2023-04-23T08:41:27.818Z,24.56
2023-04-23T08:42:27.801Z,24.55
2023-04-23T08:43:27.923Z,24.58
2023-04-23T08:44:27.785Z,24.56
2023-04-23T08:45:27.794Z,24.58
2023-04-23T08:46:27.873Z,24.55
2023-04-23T08:47:27.810Z,24.57
2023-04-23T08:48:27.784Z,24.59
2023-04-23T08:49:27.768Z,24.56
2023-04-23T08:50:27.743Z,24.58
2023-04-23T08:51:27.761Z,24.58
2023-04-23T08:52:27.777Z,24.57
2023-04-23T08:53:27.763Z,24.55
2023-04-23T08:54:27.744Z,24.56
2023-04-23T08:55:27.738Z,24.55
2023-04-23T08:56:27.711Z,24.54
2023-04-23T08:57:27.731Z,24.53
2023-04-23T08:58:27.738Z,24.49
2023-04-23T08:59:27.699Z,24.49
2023-04-23T09:00:27.689Z,24.50
2023-04-23T09:01:27.678Z,24.46
2023-04-23T09:02:27.741Z,24.44
2023-04-23T09:03:27.712Z,24.45
2023-04-23T09:04:27.664Z,24.42
2023-04-23T09:05:27.652Z,24.44
2023-04-23T09:06:27.649Z,24.45
2023-04-23T09:07:27.686Z,24.40
2023-04-23T09:08:27.687Z,24.40
2023-04-23T09:09:27.744Z,24.43
2023-04-23T09:10:27.739Z,24.39
2023-04-23T09:11:27.782Z,24.37
2023-04-23T09:12:27.806Z,24.37
2023-04-23T09:13:27.828Z,24.33
2023-04-23T09:14:27.832Z,24.36
2023-04-23T09:15:27.895Z,24.35
2023-04-23T09:16:27.918Z,24.34
2023-04-23T09:17:27.952Z,24.33
2023-04-23T09:18:27.956Z,24.32
2023-04-23T09:19:27.951Z,24.31
2023-04-23T09:20:28.007Z,24.28
2023-04-23T09:21:27.999Z,24.25
2023-04-23T09:22:27.993Z,24.27
2023-04-23T09:23:28.022Z,24.25
2023-04-23T09:24:28.061Z,24.23
2023-04-23T09:25:28.065Z,24.23
2023-04-23T09:26:28.090Z,24.19
2023-04-23T09:27:28.085Z,24.19
2023-04-23T09:28:28.103Z,24.19
2023-04-23T09:29:28.122Z,24.18
2023-04-23T09:30:28.135Z,24.14
2023-04-23T09:31:28.164Z,24.13
2023-04-23T09:32:28.156Z,24.14
2023-04-23T09:33:28.129Z,24.13
2023-04-23T09:34:28.154Z,24.10
2023-04-23T09:35:28.171Z,24.08
2023-04-23T09:36:28.187Z,24.11
2023-04-23T09:37:28.175Z,24.10
2023-04-23T09:38:28.199Z,24.12
2023-04-23T09:39:28.204Z,24.13
2023-04-23T09:40:28.204Z,24.15
2023-04-23T09:41:28.255Z,24.11
2023-04-23T09:42:28.245Z,24.08
2023-04-23T09:43:28.230Z,24.04
2023-04-23T09:44:28.247Z,24.06
2023-04-23T09:45:28.256Z,24.09
2023-04-23T09:46:28.263Z,24.04
2023-04-23T09:47:28.261Z,23.99
2023-04-23T09:48:28.251Z,23.96
2023-04-23T09:49:28.238Z,23.93
2023-04-23T09:50:28.225Z,23.94
2023-04-23T09:51:28.252Z,23.93
2023-04-23T09:52:28.255Z,23.90
2023-04-23T09:53:28.277Z,23.91
2023-04-23T09:54:28.268Z,23.89
2023-04-23T09:55:28.281Z,23.97
2023-04-23T09:56:28.295Z,23.98
2023-04-23T09:57:28.272Z,24.01
2023-04-23T09:58:29.112Z,24.04
2023-04-23T10:00:28.271Z,24.03
2023-04-23T10:01:28.298Z,23.99
2023-04-23T10:02:28.533Z,23.96
2023-04-23T10:03:28.338Z,23.99
2023-04-23T10:04:28.322Z,24.02
2023-04-23T10:05:36.859Z,24.06
2023-04-23T10:06:42.405Z,24.07
2023-04-23T10:07:29.231Z,24.07
2023-04-23T10:08:28.295Z,24.06
2023-04-23T10:09:28.229Z,24.06
2023-04-23T10:10:28.183Z,24.08
2023-04-23T10:11:28.202Z,24.07
2023-04-23T10:12:46.578Z,24.07
2023-04-23T10:13:29.206Z,24.11
2023-04-23T10:14:28.184Z,24.12
2023-04-23T10:15:28.203Z,24.17
2023-04-23T10:16:33.000Z,24.16
2023-04-23T10:17:29.178Z,24.18
2023-04-23T10:18:28.146Z,24.19
2023-04-23T10:19:28.146Z,24.19
2023-04-23T10:20:28.148Z,24.20
2023-04-23T10:21:30.300Z,24.20
2023-04-23T10:22:29.114Z,24.21
2023-04-23T10:23:28.113Z,24.21
2023-04-23T10:24:28.111Z,24.23
2023-04-23T10:25:28.096Z,24.23
2023-04-23T10:26:28.099Z,24.23
2023-04-23T10:27:36.794Z,24.23
2023-04-23T10:28:29.089Z,24.25
2023-04-23T10:29:28.093Z,24.25
2023-04-23T10:30:28.094Z,24.27
2023-04-23T10:31:28.079Z,24.27
2023-04-23T10:32:28.075Z,24.27
2023-04-23T10:33:30.883Z,24.25
2023-04-23T10:34:29.067Z,24.28
2023-04-23T10:35:28.040Z,24.25
2023-04-23T10:36:28.170Z,24.21
2023-04-23T10:37:28.030Z,24.12
2023-04-23T10:38:28.019Z,24.09
2023-04-23T10:39:30.101Z,24.05
2023-04-23T10:40:28.016Z,24.04
2023-04-23T10:41:28.031Z,24.04
2023-04-23T10:42:28.055Z,24.05
2023-04-23T10:43:28.073Z,24.09
2023-04-23T10:44:50.015Z,24.08
2023-04-23T10:45:29.076Z,24.11
2023-04-23T10:46:28.115Z,24.11
2023-04-23T10:47:28.085Z,24.15
2023-04-23T10:48:28.066Z,24.13
2023-04-23T10:49:28.052Z,24.11
2023-04-23T10:50:28.058Z,24.11
2023-04-23T10:52:10.199Z,24.12
2023-04-23T10:52:29.035Z,24.07
2023-04-23T10:53:28.027Z,24.03
2023-04-23T10:54:28.020Z,24.01
2023-04-23T10:55:28.027Z,24.01
2023-04-23T10:56:27.997Z,23.99
2023-04-23T10:57:27.997Z,23.96
2023-04-23T10:58:27.995Z,23.97
2023-04-23T10:59:27.996Z,23.95
2023-04-23T11:00:27.965Z,23.93
2023-04-23T11:01:28.038Z,23.92
2023-04-23T11:02:28.160Z,23.91
2023-04-23T11:03:28.055Z,23.93
2023-04-23T11:04:28.044Z,23.88
2023-04-23T11:05:27.958Z,23.91
2023-04-23T11:06:27.930Z,23.91
2023-04-23T11:07:27.920Z,23.90
2023-04-23T11:08:27.932Z,23.92
2023-04-23T11:09:27.912Z,23.96
2023-04-23T11:10:27.898Z,23.93
2023-04-23T11:11:27.907Z,23.90
2023-04-23T11:12:27.908Z,23.92
2023-04-23T11:13:27.912Z,23.92
2023-04-23T11:14:27.886Z,23.91
2023-04-23T11:15:27.909Z,23.90
2023-04-23T11:16:27.927Z,23.92
2023-04-23T11:17:27.934Z,23.92
2023-04-23T11:18:27.981Z,23.89
2023-04-23T11:19:28.009Z,23.88
2023-04-23T11:20:28.013Z,23.88
2023-04-23T11:21:28.025Z,23.87
2023-04-23T11:22:28.044Z,23.85
2023-04-23T11:23:28.058Z,23.85
2023-04-23T11:24:28.042Z,23.85
2023-04-23T11:25:28.049Z,23.85
2023-04-23T11:26:28.046Z,23.85
2023-04-23T11:27:28.051Z,23.86
2023-04-23T11:28:28.078Z,23.86
2023-04-23T11:29:28.102Z,23.84
2023-04-23T11:30:28.133Z,23.86
2023-04-23T11:31:28.133Z,23.85
2023-04-23T11:32:28.224Z,23.86
2023-04-23T11:33:28.172Z,23.85
2023-04-23T11:34:28.176Z,23.86
2023-04-23T11:35:28.215Z,23.86
2023-04-23T11:36:28.177Z,23.84
2023-04-23T11:37:28.173Z,23.83
2023-04-23T11:38:28.200Z,23.84
2023-04-23T11:39:28.220Z,23.88
2023-04-23T11:40:28.242Z,23.91
2023-04-23T11:41:28.250Z,23.94
2023-04-23T11:42:28.262Z,23.95
2023-04-23T11:43:28.299Z,23.96
2023-04-23T11:44:28.328Z,24.01
2023-04-23T11:45:28.323Z,24.02
2023-04-23T11:46:28.360Z,24.03
2023-04-23T11:47:28.368Z,24.03
2023-04-23T11:48:28.395Z,24.03
2023-04-23T11:49:28.417Z,24.00
2023-04-23T11:50:28.420Z,24.01
2023-04-23T11:51:28.469Z,24.02
2023-04-23T11:52:28.482Z,24.02
2023-04-23T11:53:28.530Z,24.05
2023-04-23T11:54:28.564Z,24.06
2023-04-23T11:55:28.594Z,24.08
2023-04-23T11:56:28.620Z,24.07
2023-04-23T11:57:28.650Z,24.05
2023-04-23T11:58:28.704Z,24.02
2023-04-23T11:59:28.724Z,23.99
2023-04-23T12:00:28.734Z,24.02
2023-04-23T12:01:28.781Z,24.03
2023-04-23T12:02:28.939Z,24.04
2023-04-23T12:03:28.920Z,24.05
2023-04-23T12:04:29.076Z,24.06
2023-04-23T12:05:28.956Z,24.08
2023-04-23T12:06:28.947Z,24.09
2023-04-23T12:07:28.991Z,24.08
2023-04-23T12:08:29.013Z,24.10
2023-04-23T12:09:29.038Z,24.07
2023-04-23T12:10:29.069Z,24.08
2023-04-23T12:11:29.131Z,24.08
2023-04-23T12:12:29.111Z,24.08
2023-04-23T12:13:29.161Z,24.08
2023-04-23T12:14:29.304Z,24.09
2023-04-23T12:15:29.229Z,24.08
2023-04-23T12:16:29.351Z,24.11
2023-04-23T12:17:29.386Z,24.08
2023-04-23T12:18:29.350Z,24.09
2023-04-23T12:19:29.433Z,24.10
2023-04-23T12:20:29.434Z,24.11
2023-04-23T12:21:29.482Z,24.11
2023-04-23T12:22:29.561Z,24.11
2023-04-23T12:23:29.587Z,24.10
2023-04-23T12:24:29.647Z,24.11
2023-04-23T12:25:29.691Z,24.10
2023-04-23T12:26:29.749Z,24.09
2023-04-23T12:27:29.781Z,24.08
2023-04-23T12:28:29.828Z,24.10
2023-04-23T12:29:29.894Z,24.11
2023-04-23T12:30:29.928Z,24.07
2023-04-23T12:31:30.136Z,24.07
2023-04-23T12:32:30.076Z,24.06
2023-04-23T12:33:30.076Z,24.08
2023-04-23T12:34:30.134Z,24.05
2023-04-23T12:35:30.167Z,24.06
2023-04-23T12:36:30.233Z,24.06
2023-04-23T12:37:30.273Z,24.05
2023-04-23T12:38:30.335Z,24.05
2023-04-23T12:39:30.395Z,24.06
2023-04-23T12:40:30.436Z,24.06
2023-04-23T12:41:32.338Z,24.04
2023-04-23T12:42:30.472Z,24.04
2023-04-23T12:43:30.491Z,24.04
2023-04-23T12:44:30.467Z,24.04
2023-04-23T12:45:30.460Z,24.03
2023-04-23T12:46:30.461Z,24.03
2023-04-23T12:47:30.430Z,24.04
2023-04-23T12:48:30.435Z,24.01
2023-04-23T12:49:30.419Z,24.02
2023-04-23T12:50:30.396Z,24.01
2023-04-23T12:51:30.424Z,23.99
2023-04-23T12:52:30.404Z,24.00
2023-04-23T12:53:30.415Z,23.99